createdAt,value
2024-01-09T00:01:03.989Z,25.17
2024-01-09T00:05:06.138Z,27.03
2024-01-09T00:09:07.926Z,26.87
2024-01-09T00:13:10.987Z,28.83
2024-01-09T00:17:12.921Z,26.93
2024-01-09T00:21:14.689Z,28.40
2024-01-09T00:25:17.440Z,27.53
2024-01-09T00:29:19.285Z,27.70
2024-01-09T00:33:21.419Z,27.20
2024-01-09T00:37:23.511Z,27.40
2024-01-09T00:41:25.336Z,28.43
2024-01-09T00:45:27.087Z,31.07
2024-01-09T00:49:29.014Z,31.20
2024-01-09T00:53:30.795Z,27.93
2024-01-09T00:57:32.575Z,27.17
2024-01-09T01:01:34.545Z,27.80
2024-01-09T01:05:36.356Z,29.80
2024-01-09T01:09:38.799Z,30.07
2024-01-09T01:13:40.489Z,29.10
2024-01-09T01:17:42.502Z,31.47
2024-01-09T01:21:44.404Z,30.00
2024-01-09T01:25:46.236Z,33.53
2024-01-09T01:29:48.212Z,30.20
2024-01-09T01:33:50.109Z,29.93
2024-01-09T01:37:52.777Z,33.73
2024-01-09T01:41:54.672Z,28.93
2024-01-09T01:45:56.975Z,30.17
2024-01-09T01:49:58.712Z,34.60
2024-01-09T01:54:00.591Z,34.07
2024-01-09T01:58:02.962Z,30.37
2024-01-09T02:02:04.925Z,30.70
2024-01-09T02:06:06.988Z,32.70
2024-01-09T02:10:09.128Z,32.07
2024-01-09T02:14:11.033Z,32.83
2024-01-09T02:18:13.028Z,33.30
2024-01-09T02:22:15.003Z,35.27
2024-01-09T02:26:38.989Z,35.23
2024-01-09T02:30:42.651Z,31.33
2024-01-09T02:34:47.756Z,33.60
2024-01-09T02:38:49.483Z,33.77
2024-01-09T02:42:51.657Z,37.03
2024-01-09T02:46:53.478Z,38.00
2024-01-09T02:50:55.200Z,36.60
2024-01-09T02:54:57.096Z,32.80
2024-01-09T02:58:59.194Z,37.17
2024-01-09T03:03:07.598Z,32.27
2024-01-09T03:07:16.494Z,35.50
2024-01-09T03:11:25.274Z,34.03
2024-01-09T03:15:33.266Z,35.67
2024-01-09T03:19:41.242Z,33.70
2024-01-09T03:23:49.555Z,35.27
2024-01-09T03:27:54.057Z,34.37
2024-01-09T03:31:55.794Z,33.67
2024-01-09T03:35:58.686Z,38.80
2024-01-09T03:40:00.710Z,37.00
2024-01-09T03:44:02.556Z,36.47
2024-01-09T03:48:04.820Z,34.50
2024-01-09T03:52:07.556Z,35.90
2024-01-09T03:56:09.580Z,32.37
2024-01-09T04:00:11.991Z,37.13
2024-01-09T04:04:13.730Z,39.30
2024-01-09T04:08:15.954Z,34.10
2024-01-09T04:12:19.425Z,40.77
2024-01-09T04:16:21.184Z,39.63
2024-01-09T04:20:23.028Z,38.60
2024-01-09T04:24:24.899Z,34.40
2024-01-09T04:28:26.673Z,37.97
2024-01-09T04:32:28.476Z,37.10
2024-01-09T04:36:30.565Z,34.03
2024-01-09T04:40:32.334Z,34.37
2024-01-09T04:44:34.201Z,33.50
2024-01-09T04:48:36.601Z,34.30
2024-01-09T04:52:38.795Z,34.60
2024-01-09T04:56:40.566Z,37.77
2024-01-09T05:00:42.438Z,36.90
2024-01-09T05:04:44.200Z,32.67
2024-01-09T05:08:46.357Z,34.83
2024-01-09T05:12:48.147Z,34.80
2024-01-09T05:16:50.032Z,36.93
2024-01-09T05:20:51.783Z,31.30
2024-01-09T05:24:53.550Z,40.10
2024-01-09T05:28:55.693Z,36.73
2024-01-09T05:32:57.590Z,38.00
2024-01-09T05:36:59.418Z,41.07
2024-01-09T05:41:01.379Z,39.90
2024-01-09T05:45:03.168Z,39.43
2024-01-09T05:49:05.542Z,39.77
2024-01-09T05:53:08.867Z,41.87
2024-01-09T05:57:10.666Z,43.10
2024-01-09T06:01:12.652Z,39.47
2024-01-09T06:05:14.711Z,43.07
2024-01-09T06:09:16.654Z,43.80
2024-01-09T06:13:18.453Z,40.83
2024-01-09T06:17:20.288Z,39.90
2024-01-09T06:21:22.050Z,43.37
2024-01-09T06:25:23.969Z,44.30
2024-01-09T06:29:25.888Z,39.27
2024-01-09T06:33:28.282Z,42.17
2024-01-09T06:37:30.213Z,46.07
2024-01-09T06:41:32.159Z,47.43
2024-01-09T06:45:33.967Z,45.33
2024-01-09T06:49:36.106Z,45.63
2024-01-09T06:53:37.923Z,40.10
2024-01-09T06:57:40.141Z,40.87
2024-01-09T07:01:41.884Z,42.30
2024-01-09T07:05:43.951Z,41.40
2024-01-09T07:09:45.921Z,48.27
2024-01-09T07:13:47.707Z,44.60
2024-01-09T07:17:49.810Z,46.83
2024-01-09T07:21:51.761Z,47.87
2024-01-09T07:25:54.159Z,43.13
2024-01-09T07:29:56.165Z,43.70
2024-01-09T07:33:58.183Z,49.73
2024-01-09T07:37:59.987Z,45.80
2024-01-09T07:42:01.774Z,44.93
2024-01-09T07:46:04.548Z,45.10
2024-01-09T07:50:06.658Z,47.77
2024-01-09T07:54:08.381Z,44.57
2024-01-09T07:58:10.115Z,45.77
2024-01-09T08:02:11.915Z,48.90
2024-01-09T08:06:16.319Z,45.27
2024-01-09T08:10:18.218Z,46.00
2024-01-09T08:14:20.230Z,41.87
2024-01-09T08:18:22.118Z,44.70
2024-01-09T08:22:24.096Z,43.47
2024-01-09T08:26:25.944Z,44.47
2024-01-09T08:30:29.487Z,43.83
2024-01-09T08:34:32.886Z,47.30
2024-01-09T08:38:34.714Z,40.83
2024-01-09T08:42:36.600Z,41.90
2024-01-09T08:46:38.377Z,44.77
2024-01-09T08:50:40.242Z,48.37
2024-01-09T08:54:42.019Z,42.60
2024-01-09T08:58:43.879Z,51.00
2024-01-09T09:02:45.823Z,42.73
2024-01-09T09:06:48.717Z,45.60
2024-01-09T09:10:51.005Z,44.67
2024-01-09T09:14:53.193Z,42.50
2024-01-09T09:18:55.447Z,44.50
2024-01-09T09:22:57.407Z,46.37
2024-01-09T09:26:59.297Z,44.77
2024-01-09T09:31:01.121Z,42.97
2024-01-09T09:35:03.263Z,47.27
2024-01-09T09:39:05.161Z,45.17
2024-01-09T09:43:07.300Z,44.27
2024-01-09T09:47:09.107Z,43.13
2024-01-09T09:51:12.076Z,45.50
2024-01-09T09:55:14.076Z,45.07
2024-01-09T09:59:16.587Z,48.77
2024-01-09T10:03:18.732Z,45.03
2024-01-09T10:07:21.523Z,48.67
2024-01-09T10:11:23.691Z,45.17
2024-01-09T10:15:25.754Z,46.07
2024-01-09T10:19:28.543Z,47.73
2024-01-09T10:23:30.983Z,43.97
2024-01-09T10:27:35.394Z,44.60
2024-01-09T10:31:37.450Z,45.50
2024-01-09T10:35:39.877Z,43.40
2024-01-09T10:39:43.070Z,44.93
2024-01-09T10:43:44.995Z,38.13
2024-01-09T10:47:47.442Z,46.30
2024-01-09T10:51:49.697Z,43.23
2024-01-09T10:55:51.610Z,42.07
2024-01-09T10:59:53.630Z,42.93
2024-01-09T11:03:55.733Z,45.67
2024-01-09T11:07:57.619Z,43.47
2024-01-09T11:12:00.459Z,45.73
2024-01-09T11:16:02.286Z,41.87
2024-01-09T11:20:08.131Z,42.37
2024-01-09T11:24:09.959Z,45.13
2024-01-09T11:28:40.785Z,39.87
2024-01-09T11:32:42.625Z,45.23
2024-01-09T11:36:45.047Z,40.27
2024-01-09T11:40:46.848Z,41.27
2024-01-09T11:44:49.785Z,40.80
2024-01-09T11:48:52.416Z,42.67
2024-01-09T11:52:54.350Z,43.87
2024-01-09T11:56:58.617Z,41.47
2024-01-09T12:01:00.435Z,41.43
2024-01-09T12:05:06.165Z,43.23
2024-01-09T12:09:07.927Z,42.40
2024-01-09T12:13:09.720Z,40.57
2024-01-09T12:17:24.412Z,40.53
2024-01-09T12:21:35.919Z,41.93
2024-01-09T12:25:37.872Z,43.00
2024-01-09T12:29:41.278Z,42.57
2024-01-09T12:33:43.316Z,40.73
2024-01-09T12:37:47.983Z,42.87
2024-01-09T12:41:54.330Z,43.27
2024-01-09T12:45:57.347Z,42.20
2024-01-09T12:50:04.074Z,42.73
2024-01-09T12:54:07.467Z,43.33
2024-01-09T12:58:09.866Z,40.73
2024-01-09T13:02:11.964Z,44.87
2024-01-09T13:06:14.393Z,43.00
2024-01-09T13:10:16.488Z,41.40
2024-01-09T13:14:18.564Z,38.57
2024-01-09T13:18:20.553Z,45.93
2024-01-09T13:26:27.405Z,39.77
2024-01-09T13:34:34.070Z,43.37
2024-01-09T13:38:39.330Z,41.40
2024-01-09T13:42:41.142Z,41.40
2024-01-09T13:46:43.705Z,41.73
2024-01-09T13:51:49.126Z,41.93
2024-01-09T13:55:10.611Z,41.37
2024-01-09T13:59:12.470Z,42.80
2024-01-09T14:03:14.558Z,46.87
2024-01-09T14:07:16.601Z,44.40
2024-01-09T14:11:18.469Z,43.43
2024-01-09T14:15:20.399Z,48.47
2024-01-09T14:19:25.310Z,42.23
2024-01-09T14:23:27.836Z,43.13
2024-01-09T14:27:30.242Z,41.67
2024-01-09T14:31:32.052Z,41.77
2024-01-09T14:35:37.001Z,41.37
2024-01-09T14:39:39.190Z,42.50
2024-01-09T14:43:42.976Z,44.03
2024-01-09T14:47:45.130Z,50.57
2024-01-09T14:51:48.796Z,48.00
2024-01-09T14:55:50.522Z,45.30
2024-01-09T14:59:52.345Z,46.00
2024-01-09T15:03:54.202Z,45.27
2024-01-09T15:07:56.103Z,47.70
2024-01-09T15:11:58.186Z,51.30
2024-01-09T15:16:00.201Z,50.00
2024-01-09T15:20:01.982Z,45.47
2024-01-09T15:24:08.310Z,45.67
2024-01-09T15:28:10.939Z,49.20
2024-01-09T15:32:12.769Z,46.50
2024-01-09T15:36:15.062Z,50.60
2024-01-09T15:40:16.780Z,51.10
2024-01-09T15:44:30.759Z,46.73
2024-01-09T15:48:32.572Z,47.80
2024-01-09T15:52:34.449Z,46.93
2024-01-09T15:56:36.385Z,48.10
2024-01-09T16:00:38.375Z,50.80
2024-01-09T16:04:40.874Z,47.60
2024-01-09T16:08:43.239Z,46.37
2024-01-09T16:12:44.995Z,47.63
2024-01-09T16:16:50.279Z,45.37
2024-01-09T16:20:52.065Z,47.47
2024-01-09T16:24:54.231Z,47.77
2024-01-09T16:28:58.988Z,49.97
2024-01-09T16:33:03.988Z,50.07
2024-01-09T16:37:06.151Z,48.77
2024-01-09T16:41:08.083Z,51.13
2024-01-09T16:45:11.012Z,47.60
2024-01-09T16:49:13.087Z,49.20
2024-01-09T16:53:14.868Z,47.50
2024-01-09T16:57:16.923Z,45.20
2024-01-09T17:01:28.774Z,46.37
2024-01-09T17:05:32.066Z,43.70
2024-01-09T17:09:34.192Z,49.20
2024-01-09T17:13:38.942Z,46.50
2024-01-09T17:17:41.027Z,50.53
2024-01-09T17:21:42.880Z,44.77
2024-01-09T17:25:46.751Z,48.50
2024-01-09T17:29:48.723Z,50.50
2024-01-09T17:33:50.547Z,49.20
2024-01-09T17:37:52.372Z,53.33
2024-01-09T17:41:54.850Z,51.13
2024-01-09T17:45:59.083Z,49.40
2024-01-09T17:50:01.275Z,48.30
2024-01-09T17:54:04.307Z,48.67
2024-01-09T17:58:06.528Z,52.70
2024-01-09T18:02:08.393Z,53.73
2024-01-09T18:06:12.982Z,50.37
2024-01-09T18:10:15.179Z,53.10
2024-01-09T18:14:17.330Z,51.57
2024-01-09T18:18:20.451Z,50.47
2024-01-09T18:22:22.340Z,49.70
2024-01-09T18:26:28.372Z,53.83
2024-01-09T18:30:30.726Z,49.20
2024-01-09T18:34:41.735Z,53.93
2024-01-09T18:38:43.804Z,53.73
2024-01-09T18:42:50.427Z,50.33
2024-01-09T18:47:02.270Z,60.47
2024-01-09T18:51:04.400Z,52.83
2024-01-09T18:55:08.157Z,54.43
2024-01-09T18:59:13.887Z,57.50
2024-01-09T19:03:17.188Z,59.27
2024-01-09T19:07:19.982Z,51.07
2024-01-09T19:11:24.762Z,55.67
2024-01-09T19:15:27.084Z,48.77
2024-01-09T19:19:28.895Z,49.93
2024-01-09T19:23:30.982Z,51.67
2024-01-09T19:27:34.266Z,47.77
2024-01-09T19:31:47.004Z,54.47
2024-01-09T19:35:49.821Z,50.67
2024-01-09T19:39:55.458Z,55.30
2024-01-09T19:43:58.883Z,56.23
2024-01-09T19:48:01.017Z,59.63
2024-01-09T19:52:06.163Z,58.10
2024-01-09T19:56:08.979Z,62.40
2024-01-09T20:00:11.504Z,66.40
2024-01-09T20:04:13.857Z,62.57
2024-01-09T20:08:16.189Z,71.10
2024-01-09T20:12:18.047Z,74.50
2024-01-09T20:16:21.801Z,69.97
2024-01-09T20:20:26.384Z,80.10
2024-01-09T20:24:28.275Z,71.07
2024-01-09T20:28:30.290Z,66.53
2024-01-09T20:32:32.169Z,73.87
2024-01-09T20:36:33.986Z,68.17
2024-01-09T20:40:35.723Z,65.67
2024-01-09T20:44:40.202Z,72.13
2024-01-09T20:48:42.312Z,68.03
2024-01-09T20:52:44.226Z,71.63
2024-01-09T20:56:46.018Z,71.97
2024-01-09T21:00:49.999Z,73.30
2024-01-09T21:04:51.930Z,67.20
2024-01-09T21:08:53.691Z,70.37
2024-01-09T21:12:55.689Z,73.60
2024-01-09T21:16:58.269Z,72.10
2024-01-09T21:21:00.332Z,69.50
2024-01-09T21:25:03.060Z,70.13
2024-01-09T21:29:05.892Z,72.23
2024-01-09T21:33:10.780Z,70.63
2024-01-09T21:37:12.774Z,66.07
2024-01-09T21:41:14.734Z,67.60
2024-01-09T21:45:16.806Z,67.47
2024-01-09T21:49:18.600Z,65.33
2024-01-09T21:53:20.477Z,64.57
2024-01-09T21:57:22.190Z,68.13
2024-01-09T22:01:24.019Z,63.63
2024-01-09T22:05:25.855Z,67.43
2024-01-09T22:09:27.929Z,68.93
2024-01-09T22:13:29.651Z,69.37
2024-01-09T22:17:31.757Z,66.47
2024-01-09T22:21:33.625Z,65.53
2024-01-09T22:25:35.583Z,75.10
2024-01-09T22:29:38.110Z,67.63
2024-01-09T22:33:40.005Z,69.37
2024-01-09T22:37:41.913Z,71.03
2024-01-09T22:41:43.968Z,78.13
2024-01-09T22:45:45.836Z,72.80
2024-01-09T22:49:47.757Z,66.87
2024-01-09T22:53:49.581Z,67.90
2024-01-09T22:57:51.375Z,66.70
2024-01-09T23:01:53.972Z,66.13
2024-01-09T23:05:57.437Z,70.23
2024-01-09T23:09:59.383Z,63.37
2024-01-09T23:14:01.261Z,65.90
2024-01-09T23:18:03.070Z,60.70
2024-01-09T23:22:05.001Z,60.13
2024-01-09T23:26:06.798Z,58.37
2024-01-09T23:30:09.210Z,65.37
2024-01-09T23:34:11.679Z,61.93
2024-01-09T23:38:13.658Z,60.97
2024-01-09T23:42:15.418Z,55.43
2024-01-09T23:46:17.263Z,57.60
2024-01-09T23:50:19.402Z,54.60
2024-01-09T23:54:21.180Z,56.10
2024-01-09T23:58:22.887Z,51.73
